Main page
METAR-TAF:

METAR-TAF

Airports :

Bad Vöslau Airport

Bad Vöslau, Austria

latitude: 47-57-52N, longitude: 016-15-34E, elevation: 233 m

Current weather observation

The report was made 44 minutes ago, at 16:00 UTC
Wind 9 kt from the South/Southwest
Temperature 30°C
Humidity 33%
Pressure

METAR: LOAV 201600Z 20009KT 30KM FEW030CU 30/12

Time: 18:44 (16:44 UTC)

Forecast

The report was made 41 minutes ago, at 16:03 UTC
Forecast valid from 20 at 16 UTC to 20 at 21 UTC
Wind 8 kt from the South
Visibility 10 km or more
Scattered clouds at a height of 5000 ft
Becoming
from 20 at 18 UTC to 20 at 20 UTC
Wind 4 kt from the South/Southeast

TAF: LOAV 201603Z 2016/2021 18008KT 9999 SCT050 BECMG 2018/2020 16004KT

Weather observations and forecasts of more than 4000 airports (METAR and TAF reports).

The available stations are represented by yellow and red dots on the map.

Hover mouse over dot to see the name of the station.

Then click to see weather observations and forecasts.

To change the map : click on the green buttons with a black cross to zoom in, on the green button with a dash to zoom out, or on the green arrows for adjacent maps.


METAR-TAF: